createdAt,value
2023-03-29T00:02:33.488Z,97602.44
2023-03-29T00:05:02.089Z,97600.34
2023-03-29T00:07:30.088Z,97598.69
2023-03-29T00:09:56.705Z,97592.47
2023-03-29T00:12:23.130Z,97580.53
2023-03-29T00:14:49.560Z,97581.38
2023-03-29T00:17:16.404Z,97575.16
2023-03-29T00:19:44.524Z,97574.97
2023-03-29T00:22:11.492Z,97577.03
2023-03-29T00:24:37.976Z,97561.19
2023-03-29T00:27:04.789Z,97559.16
2023-03-29T00:29:31.346Z,97564.28
2023-03-29T00:31:58.117Z,97563.91
2023-03-29T00:34:26.490Z,97567.81
2023-03-29T00:36:53.137Z,97561.84
2023-03-29T00:39:20.536Z,97562.47
2023-03-29T00:41:48.705Z,97564.94
2023-03-29T00:44:52.714Z,97562.44
2023-03-29T00:47:26.475Z,97562.25
2023-03-29T00:49:53.916Z,97562.06
2023-03-29T00:52:21.772Z,97554.00
2023-03-29T00:54:52.981Z,97554.63
2023-03-29T00:57:20.897Z,97547.00
2023-03-29T00:59:49.627Z,97543.09
2023-03-29T01:02:22.088Z,97541.84
2023-03-29T01:04:57.878Z,97533.22
2023-03-29T01:07:30.739Z,97538.78
2023-03-29T01:10:29.474Z,97529.47
2023-03-29T01:13:06.367Z,97527.03
2023-03-29T01:15:33.408Z,97525.38
2023-03-29T01:18:01.828Z,97522.06
2023-03-29T01:20:46.032Z,97523.91
2023-03-29T01:23:22.256Z,97523.09
2023-03-29T01:26:10.024Z,97518.34
2023-03-29T01:28:45.505Z,97508.66
2023-03-29T01:31:19.684Z,97502.69
2023-03-29T01:34:00.975Z,97498.34
2023-03-29T01:36:35.004Z,97496.72
2023-03-29T01:39:06.950Z,97481.47
2023-03-29T01:41:52.243Z,97481.03
2023-03-29T01:44:23.970Z,97475.91
2023-03-29T01:46:53.212Z,97471.34
2023-03-29T01:49:32.315Z,97468.47
2023-03-29T01:52:05.363Z,97458.56
2023-03-29T01:54:38.133Z,97449.88
2023-03-29T01:57:06.887Z,97444.94
2023-03-29T01:59:36.299Z,97440.22
2023-03-29T02:02:08.128Z,97438.78
2023-03-29T02:04:40.364Z,97439.81
2023-03-29T02:07:09.012Z,97436.72
2023-03-29T02:09:37.782Z,97426.66
2023-03-29T02:12:07.081Z,97418.63
2023-03-29T02:14:33.586Z,97417.53
2023-03-29T02:17:18.213Z,97429.31
2023-03-29T02:19:51.550Z,97426.00
2023-03-29T02:22:24.326Z,97428.91
2023-03-29T02:24:54.799Z,97416.94
2023-03-29T02:27:21.766Z,97420.44
2023-03-29T02:29:48.325Z,97404.81
2023-03-29T02:32:42.260Z,97414.69
2023-03-29T02:35:14.506Z,97407.88
2023-03-29T02:37:44.442Z,97399.84
2023-03-29T02:40:13.089Z,97396.78
2023-03-29T02:42:42.488Z,97392.44
2023-03-29T02:45:12.761Z,97380.06
2023-03-29T02:47:44.336Z,97381.16
2023-03-29T02:50:11.943Z,97368.75
2023-03-29T02:52:43.008Z,97369.19
2023-03-29T02:55:15.770Z,97375.16
2023-03-29T02:57:43.812Z,97369.59
2023-03-29T03:00:11.803Z,97371.22
2023-03-29T03:02:38.324Z,97365.06
2023-03-29T03:05:06.656Z,97367.94
2023-03-29T03:07:33.752Z,97362.81
2023-03-29T03:10:00.365Z,97367.94
2023-03-29T03:12:27.098Z,97368.19
2023-03-29T03:14:53.594Z,97370.22
2023-03-29T03:17:20.186Z,97378.06
2023-03-29T03:19:47.454Z,97377.03
2023-03-29T03:22:14.848Z,97384.44
2023-03-29T03:24:42.652Z,97376.81
2023-03-29T03:27:10.790Z,97374.56
2023-03-29T03:29:38.553Z,97376.78
2023-03-29T03:32:43.579Z,97373.09
2023-03-29T03:35:49.213Z,97369.38
2023-03-29T03:38:17.018Z,97360.09
2023-03-29T03:40:53.656Z,97352.03
2023-03-29T03:43:20.110Z,97358.84
2023-03-29T03:45:47.958Z,97365.59
2023-03-29T03:48:17.512Z,97371.94
2023-03-29T03:50:55.215Z,97372.19
2023-03-29T03:53:23.522Z,97373.44
2023-03-29T03:56:20.451Z,97376.34
2023-03-29T03:59:07.155Z,97375.09
2023-03-29T04:01:50.641Z,97372.41
2023-03-29T04:04:20.594Z,97374.00
2023-03-29T04:07:02.652Z,97374.41
2023-03-29T04:09:48.811Z,97379.78
2023-03-29T04:12:33.899Z,97378.34
2023-03-29T04:15:01.198Z,97365.75
2023-03-29T04:17:28.978Z,97368.00
2023-03-29T04:19:58.259Z,97371.94
2023-03-29T04:22:27.220Z,97371.94
2023-03-29T04:24:53.873Z,97371.72
2023-03-29T04:27:38.927Z,97374.13
2023-03-29T04:30:13.415Z,97379.13
2023-03-29T04:33:06.094Z,97376.03
2023-03-29T04:35:34.254Z,97375.22
2023-03-29T04:38:00.987Z,97379.72
2023-03-29T04:40:28.985Z,97373.34
2023-03-29T04:43:18.363Z,97371.94
2023-03-29T04:45:55.154Z,97363.47
2023-03-29T04:48:47.213Z,97373.56
2023-03-29T04:51:14.111Z,97380.34
2023-03-29T04:53:41.076Z,97375.53
2023-03-29T04:56:08.095Z,97382.09
2023-03-29T04:59:00.545Z,97378.38
2023-03-29T05:01:27.043Z,97376.06
2023-03-29T05:03:57.468Z,97377.19
2023-03-29T05:06:29.272Z,97384.38
2023-03-29T05:08:56.118Z,97389.31
2023-03-29T05:11:26.954Z,97386.19
2023-03-29T05:13:55.795Z,97382.88
2023-03-29T05:16:24.614Z,97391.66
2023-03-29T05:18:55.281Z,97397.47
2023-03-29T05:21:22.310Z,97392.78
2023-03-29T05:23:49.461Z,97395.25
2023-03-29T05:26:16.156Z,97395.81
2023-03-29T05:28:50.902Z,97396.50
2023-03-29T05:31:17.558Z,97394.22
2023-03-29T05:33:48.319Z,97390.91
2023-03-29T05:36:16.975Z,97394.97
2023-03-29T05:38:49.828Z,97394.03
2023-03-29T05:41:20.654Z,97397.69
2023-03-29T05:43:47.056Z,97395.63
2023-03-29T05:46:13.717Z,97397.44
2023-03-29T05:48:47.471Z,97395.94
2023-03-29T05:51:15.017Z,97397.84
2023-03-29T05:53:41.643Z,97392.91
2023-03-29T05:56:08.780Z,97393.59
2023-03-29T05:58:36.249Z,97397.94
2023-03-29T06:01:05.179Z,97405.00
2023-03-29T06:03:49.506Z,97404.78
2023-03-29T06:06:18.414Z,97409.06
2023-03-29T06:08:45.250Z,97398.13
2023-03-29T06:11:24.149Z,97404.13
2023-03-29T06:14:16.627Z,97407.16
2023-03-29T06:16:50.082Z,97412.59
2023-03-29T06:19:17.363Z,97405.59
2023-03-29T06:21:43.916Z,97398.38
2023-03-29T06:24:13.996Z,97413.78
2023-03-29T06:26:46.406Z,97418.50
2023-03-29T06:29:12.900Z,97419.13
2023-03-29T06:31:40.934Z,97420.84
2023-03-29T06:34:09.591Z,97408.53
2023-03-29T06:36:58.696Z,97408.81
2023-03-29T06:39:26.895Z,97415.56
2023-03-29T06:42:20.162Z,97410.44
2023-03-29T06:45:08.683Z,97419.78
2023-03-29T06:47:36.698Z,97413.81
2023-03-29T06:50:03.496Z,97419.72
2023-03-29T06:52:56.244Z,97416.41
2023-03-29T06:55:24.481Z,97421.34
2023-03-29T06:57:52.647Z,97419.06
2023-03-29T07:00:27.665Z,97419.09
2023-03-29T07:03:19.962Z,97414.38
2023-03-29T07:05:51.885Z,97419.97
2023-03-29T07:08:21.393Z,97418.00
2023-03-29T07:10:59.304Z,97418.06
2023-03-29T07:13:46.153Z,97420.06
2023-03-29T07:16:17.464Z,97426.91
2023-03-29T07:18:49.921Z,97426.56
2023-03-29T07:21:37.746Z,97436.16
2023-03-29T07:24:06.590Z,97437.47
2023-03-29T07:26:34.611Z,97442.97
2023-03-29T07:29:01.249Z,97448.47
2023-03-29T07:31:29.520Z,97439.84
2023-03-29T07:34:10.863Z,97447.63
2023-03-29T07:36:38.862Z,97441.28
2023-03-29T07:39:06.859Z,97448.09
2023-03-29T07:41:36.039Z,97444.81
2023-03-29T07:44:11.734Z,97452.78
2023-03-29T07:46:38.683Z,97450.31
2023-03-29T07:49:06.777Z,97451.50
2023-03-29T07:51:33.252Z,97458.09
2023-03-29T07:54:07.747Z,97450.44
2023-03-29T07:56:40.309Z,97459.16
2023-03-29T07:59:26.007Z,97447.03
2023-03-29T08:02:02.916Z,97446.81
2023-03-29T08:04:37.393Z,97441.44
2023-03-29T08:07:19.867Z,97441.22
2023-03-29T08:10:05.611Z,97445.84
2023-03-29T08:12:50.499Z,97446.34
2023-03-29T08:15:19.714Z,97451.22
2023-03-29T08:17:46.343Z,97445.81
2023-03-29T08:20:16.232Z,97446.75
2023-03-29T08:22:45.773Z,97439.50
2023-03-29T08:25:32.883Z,97437.16
2023-03-29T08:27:59.402Z,97428.91
2023-03-29T08:30:37.390Z,97435.56
2023-03-29T08:33:05.209Z,97434.28
2023-03-29T08:35:32.101Z,97438.19
2023-03-29T08:38:19.900Z,97440.25
2023-03-29T08:40:48.708Z,97434.53
2023-03-29T08:43:39.566Z,97441.91
2023-03-29T08:46:30.893Z,97445.19
2023-03-29T08:49:10.689Z,97445.75
2023-03-29T08:51:44.192Z,97443.03
2023-03-29T08:54:24.384Z,97436.69
2023-03-29T08:57:23.512Z,97442.97
2023-03-29T08:59:58.361Z,97440.34
2023-03-29T09:02:27.724Z,97440.50
2023-03-29T09:05:15.114Z,97435.34
2023-03-29T09:07:44.952Z,97432.63
2023-03-29T09:10:16.833Z,97432.69
2023-03-29T09:13:06.336Z,97420.00
2023-03-29T09:16:01.353Z,97424.72
2023-03-29T09:18:48.358Z,97434.56
2023-03-29T09:21:19.487Z,97427.97
2023-03-29T09:23:48.958Z,97420.69
2023-03-29T09:27:05.125Z,97418.94
2023-03-29T09:29:55.489Z,97417.59
2023-03-29T09:32:42.908Z,97402.09
2023-03-29T09:35:35.680Z,97404.81
2023-03-29T09:38:03.876Z,97405.16
2023-03-29T09:40:39.829Z,97408.94
2023-03-29T09:43:19.129Z,97413.03
2023-03-29T09:45:53.053Z,97419.81
2023-03-29T09:48:20.704Z,97412.56
2023-03-29T09:50:52.959Z,97416.41
2023-03-29T09:53:21.528Z,97414.63
2023-03-29T09:56:08.379Z,97415.94
2023-03-29T09:58:46.740Z,97410.00
2023-03-29T10:01:17.522Z,97417.59
2023-03-29T10:03:51.405Z,97399.88
2023-03-29T10:06:20.242Z,97385.91
2023-03-29T10:08:58.714Z,97391.75
2023-03-29T10:11:36.936Z,97389.72
2023-03-29T10:14:07.235Z,97396.22
2023-03-29T10:16:38.001Z,97393.59
2023-03-29T10:19:19.283Z,97397.84
2023-03-29T10:21:52.770Z,97392.28
2023-03-29T10:24:24.507Z,97398.41
2023-03-29T10:26:57.939Z,97392.19
2023-03-29T10:29:26.067Z,97387.06
2023-03-29T10:31:53.270Z,97387.53
2023-03-29T10:34:25.140Z,97381.00
2023-03-29T10:36:58.825Z,97373.88
2023-03-29T10:39:29.183Z,97370.47
2023-03-29T10:41:55.932Z,97375.94
2023-03-29T10:44:32.866Z,97377.28
2023-03-29T10:47:16.735Z,97372.06
2023-03-29T10:49:44.499Z,97369.09
2023-03-29T10:52:13.032Z,97371.28
2023-03-29T10:54:39.486Z,97355.75
2023-03-29T10:57:10.329Z,97356.03
2023-03-29T10:59:40.260Z,97348.22
2023-03-29T11:02:15.815Z,97349.84
2023-03-29T11:04:42.307Z,97346.88
2023-03-29T11:07:27.831Z,97342.00
2023-03-29T11:10:17.678Z,97338.47
2023-03-29T11:12:49.493Z,97335.72
2023-03-29T11:15:29.389Z,97335.97
2023-03-29T11:17:58.722Z,97328.78
2023-03-29T11:20:31.044Z,97329.25
2023-03-29T11:22:57.328Z,97322.50
2023-03-29T11:25:43.959Z,97328.50
2023-03-29T11:28:19.363Z,97331.81
2023-03-29T11:30:45.986Z,97343.66
2023-03-29T11:33:12.363Z,97332.50
2023-03-29T11:35:57.538Z,97336.09
2023-03-29T11:38:29.960Z,97339.88
2023-03-29T11:41:15.624Z,97333.28
2023-03-29T11:43:55.041Z,97327.16
2023-03-29T11:46:28.392Z,97315.63
2023-03-29T11:49:14.803Z,97317.69
2023-03-29T11:51:45.858Z,97316.25
2023-03-29T11:54:22.664Z,97315.13
2023-03-29T11:56:56.085Z,97313.69
2023-03-29T11:59:32.805Z,97328.66
2023-03-29T12:02:09.378Z,97327.63
2023-03-29T12:04:41.813Z,97323.28
2023-03-29T12:07:34.578Z,97322.41
2023-03-29T12:10:21.260Z,97331.84
2023-03-29T12:13:03.238Z,97327.53
2023-03-29T12:15:32.812Z,97333.13
2023-03-29T12:18:07.086Z,97329.84
2023-03-29T12:20:39.823Z,97326.66
2023-03-29T12:23:12.717Z,97338.63
2023-03-29T12:25:53.016Z,97321.72
2023-03-29T12:28:49.400Z,97331.09
2023-03-29T12:31:21.592Z,97345.88
2023-03-29T12:33:56.881Z,97337.06
2023-03-29T12:36:45.235Z,97340.34
2023-03-29T12:39:31.322Z,97334.34
2023-03-29T12:42:24.176Z,97324.03
2023-03-29T12:45:21.426Z,97328.47
2023-03-29T12:47:50.878Z,97323.22
2023-03-29T12:50:28.360Z,97326.31
2023-03-29T12:53:12.931Z,97330.44
2023-03-29T12:55:42.371Z,97332.34
2023-03-29T12:58:27.598Z,97333.47
2023-03-29T13:01:06.157Z,97335.38
2023-03-29T13:03:35.611Z,97337.81
2023-03-29T13:06:05.059Z,97340.81
2023-03-29T13:08:38.118Z,97343.56
2023-03-29T13:11:06.477Z,97335.94
2023-03-29T13:13:36.654Z,97331.00
2023-03-29T13:16:15.690Z,97335.66
2023-03-29T13:19:07.530Z,97327.19
2023-03-29T13:21:49.179Z,97316.38
2023-03-29T13:24:35.671Z,97326.72
2023-03-29T13:27:04.786Z,97320.94
2023-03-29T13:29:48.053Z,97328.22
2023-03-29T13:32:46.378Z,97326.38
2023-03-29T13:35:20.260Z,97331.91
2023-03-29T13:38:21.480Z,97331.88
2023-03-29T13:40:53.974Z,97345.53
2023-03-29T13:43:44.534Z,97339.97
2023-03-29T13:46:21.197Z,97347.31
2023-03-29T13:48:57.907Z,97340.28
2023-03-29T13:51:32.927Z,97339.41
2023-03-29T13:54:23.180Z,97329.97
2023-03-29T13:57:08.764Z,97329.19
2023-03-29T13:59:50.418Z,97324.16
2023-03-29T14:02:25.397Z,97318.19
2023-03-29T14:04:53.370Z,97316.66
2023-03-29T14:07:26.092Z,97303.50
2023-03-29T14:09:54.994Z,97304.88
2023-03-29T14:12:22.525Z,97304.06
2023-03-29T14:14:58.817Z,97300.56
2023-03-29T14:17:26.892Z,97296.81
2023-03-29T14:19:57.572Z,97299.22
2023-03-29T14:22:24.223Z,97277.75
2023-03-29T14:24:54.731Z,97282.97
2023-03-29T14:27:21.961Z,97277.25
2023-03-29T14:29:51.203Z,97284.00
2023-03-29T14:32:20.460Z,97273.66
2023-03-29T14:34:50.769Z,97279.09
2023-03-29T14:37:22.701Z,97274.69
2023-03-29T14:39:50.088Z,97277.84
2023-03-29T14:42:24.084Z,97269.78
2023-03-29T14:44:51.050Z,97271.31
2023-03-29T14:47:29.526Z,97268.97
2023-03-29T14:50:00.531Z,97260.59
2023-03-29T14:52:30.267Z,97251.66
2023-03-29T14:55:00.041Z,97244.22
2023-03-29T14:57:31.959Z,97250.25
2023-03-29T15:00:24.552Z,97246.69
2023-03-29T15:02:59.188Z,97240.69
2023-03-29T15:05:30.247Z,97235.94
2023-03-29T15:07:56.785Z,97225.22
2023-03-29T15:10:23.621Z,97233.09
2023-03-29T15:12:51.074Z,97228.16
2023-03-29T15:15:17.949Z,97228.44
2023-03-29T15:17:52.115Z,97225.00
2023-03-29T15:20:21.249Z,97218.97
2023-03-29T15:22:58.774Z,97217.50
2023-03-29T15:25:34.631Z,97209.88
2023-03-29T15:28:01.785Z,97210.25
2023-03-29T15:30:35.811Z,97208.06
2023-03-29T15:33:26.055Z,97199.13
2023-03-29T15:35:53.725Z,97203.84
2023-03-29T15:38:25.429Z,97191.44
2023-03-29T15:41:00.802Z,97192.63
2023-03-29T15:43:27.509Z,97179.84
2023-03-29T15:45:54.025Z,97184.91
2023-03-29T15:48:23.636Z,97192.09
2023-03-29T15:50:50.148Z,97185.84
2023-03-29T15:53:17.123Z,97185.59
2023-03-29T15:56:00.096Z,97192.94
2023-03-29T15:58:30.546Z,97192.63
2023-03-29T16:01:16.053Z,97187.78
2023-03-29T16:03:46.999Z,97192.94
2023-03-29T16:06:14.504Z,97191.84
2023-03-29T16:08:41.773Z,97185.22
2023-03-29T16:11:08.236Z,97192.63
2023-03-29T16:13:34.876Z,97184.94
2023-03-29T16:16:01.758Z,97177.47
2023-03-29T16:18:28.499Z,97180.09
2023-03-29T16:20:55.010Z,97183.81
2023-03-29T16:23:21.515Z,97179.66
2023-03-29T16:25:48.094Z,97176.88
2023-03-29T16:28:14.533Z,97167.94
2023-03-29T16:30:41.238Z,97169.28
2023-03-29T16:33:08.546Z,97163.34
2023-03-29T16:35:38.069Z,97172.03
2023-03-29T16:38:04.759Z,97167.38
2023-03-29T16:40:31.601Z,97151.06
2023-03-29T16:42:58.114Z,97156.56
2023-03-29T16:45:24.574Z,97150.91
2023-03-29T16:47:51.358Z,97154.22
2023-03-29T16:50:19.678Z,97153.31
2023-03-29T16:52:48.287Z,97152.56
2023-03-29T16:55:18.782Z,97150.47
2023-03-29T16:57:46.755Z,97158.13
2023-03-29T17:00:15.789Z,97155.75
2023-03-29T17:02:49.429Z,97151.16
2023-03-29T17:05:17.512Z,97159.09
2023-03-29T17:07:44.739Z,97162.91
2023-03-29T17:10:12.409Z,97159.69
2023-03-29T17:12:39.655Z,97169.22
2023-03-29T17:15:07.808Z,97173.06
2023-03-29T17:17:34.771Z,97166.00
2023-03-29T17:20:01.312Z,97149.69
2023-03-29T17:22:27.756Z,97145.88
2023-03-29T17:24:54.320Z,97149.72
2023-03-29T17:27:21.175Z,97142.13
2023-03-29T17:29:47.922Z,97136.44
2023-03-29T17:32:14.477Z,97143.22
2023-03-29T17:34:41.592Z,97142.16
2023-03-29T17:37:09.210Z,97142.69
2023-03-29T17:39:37.541Z,97142.94
2023-03-29T17:42:05.531Z,97146.97
2023-03-29T17:44:33.167Z,97139.31
2023-03-29T17:47:00.495Z,97139.31
2023-03-29T17:49:26.977Z,97141.47
2023-03-29T17:51:53.379Z,97140.81
2023-03-29T17:54:19.854Z,97133.38
2023-03-29T17:56:46.369Z,97145.28
2023-03-29T17:59:12.840Z,97141.13
2023-03-29T18:01:39.592Z,97141.38
2023-03-29T18:04:06.268Z,97133.44
2023-03-29T18:06:32.823Z,97135.34
2023-03-29T18:09:01.388Z,97141.06
2023-03-29T18:11:28.394Z,97136.63
2023-03-29T18:13:59.165Z,97135.72
2023-03-29T18:16:26.050Z,97139.81
2023-03-29T18:18:52.715Z,97147.72
2023-03-29T18:21:19.168Z,97134.44
2023-03-29T18:23:47.114Z,97140.94
2023-03-29T18:26:15.522Z,97136.81
2023-03-29T18:28:43.794Z,97139.19
2023-03-29T18:31:10.463Z,97137.75
2023-03-29T18:33:37.024Z,97126.44
2023-03-29T18:36:08.446Z,97132.22
2023-03-29T18:38:36.489Z,97122.41
2023-03-29T18:41:04.099Z,97129.03
2023-03-29T18:43:32.396Z,97128.59
2023-03-29T18:45:58.967Z,97120.13
2023-03-29T18:48:26.042Z,97125.28
2023-03-29T18:50:52.563Z,97115.75
2023-03-29T18:53:19.487Z,97121.97
2023-03-29T18:55:46.001Z,97127.88
2023-03-29T18:58:14.103Z,97119.56
2023-03-29T19:00:41.872Z,97127.38
2023-03-29T19:03:09.102Z,97129.00
2023-03-29T19:05:39.629Z,97133.72
2023-03-29T19:08:08.842Z,97127.06
2023-03-29T19:10:36.733Z,97127.22
2023-03-29T19:13:04.381Z,97137.44
2023-03-29T19:15:31.400Z,97141.22
2023-03-29T19:17:57.956Z,97136.00
2023-03-29T19:20:25.460Z,97137.03
2023-03-29T19:22:53.413Z,97135.63
2023-03-29T19:25:20.190Z,97138.97
2023-03-29T19:27:46.653Z,97134.69
2023-03-29T19:30:14.284Z,97128.34
2023-03-29T19:32:40.938Z,97124.44
2023-03-29T19:35:09.477Z,97116.00
2023-03-29T19:37:36.185Z,97108.19
2023-03-29T19:40:06.204Z,97105.88
2023-03-29T19:42:35.986Z,97108.00
2023-03-29T19:45:03.902Z,97099.06
2023-03-29T19:47:31.045Z,97098.25
2023-03-29T19:49:58.555Z,97087.09
2023-03-29T19:52:27.728Z,97089.94
2023-03-29T19:54:58.494Z,97087.81
2023-03-29T19:57:25.311Z,97077.56
2023-03-29T19:59:53.840Z,97069.22
2023-03-29T20:02:20.450Z,97071.16
2023-03-29T20:04:46.995Z,97073.66
2023-03-29T20:07:13.631Z,97063.47
2023-03-29T20:09:43.294Z,97069.94
2023-03-29T20:12:11.621Z,97062.97
2023-03-29T20:14:40.133Z,97065.44
2023-03-29T20:17:07.152Z,97054.13
2023-03-29T20:19:36.415Z,97050.41
2023-03-29T20:22:04.356Z,97050.72
2023-03-29T20:24:32.532Z,97046.16
2023-03-29T20:26:59.255Z,97048.41
2023-03-29T20:29:25.848Z,97044.31
2023-03-29T20:31:52.431Z,97035.44
2023-03-29T20:34:19.043Z,97031.97
2023-03-29T20:36:46.704Z,97040.91
2023-03-29T20:39:17.009Z,97043.06
2023-03-29T20:41:47.385Z,97030.03
2023-03-29T20:44:16.638Z,97022.19
2023-03-29T20:46:54.251Z,97014.34
2023-03-29T20:49:26.219Z,97014.84
2023-03-29T20:51:58.435Z,97012.41
2023-03-29T20:54:25.873Z,97015.94
2023-03-29T20:56:54.401Z,97015.34
2023-03-29T20:59:22.653Z,97007.56
2023-03-29T21:01:50.109Z,97010.03
2023-03-29T21:04:17.642Z,97009.00
2023-03-29T21:06:45.601Z,97004.69
2023-03-29T21:09:13.567Z,97004.41
2023-03-29T21:11:40.185Z,96994.94
2023-03-29T21:14:06.793Z,96991.69
2023-03-29T21:16:33.248Z,96987.06
2023-03-29T21:18:59.734Z,96983.03
2023-03-29T21:21:26.249Z,96984.13
2023-03-29T21:23:52.886Z,96976.25
2023-03-29T21:26:19.288Z,96976.53
2023-03-29T21:28:45.910Z,96971.66
2023-03-29T21:31:12.429Z,96969.19
2023-03-29T21:33:39.117Z,96964.06
2023-03-29T21:36:06.133Z,96959.66
2023-03-29T21:38:32.682Z,96959.16
2023-03-29T21:41:00.244Z,96958.34
2023-03-29T21:43:26.793Z,96954.81
2023-03-29T21:45:53.232Z,96949.38
2023-03-29T21:48:19.701Z,96951.28
2023-03-29T21:50:50.085Z,96953.16
2023-03-29T21:53:16.788Z,96947.22
2023-03-29T21:55:43.227Z,96946.94
2023-03-29T21:58:09.821Z,96952.88
2023-03-29T22:00:36.317Z,96952.38
2023-03-29T22:03:02.932Z,96945.59
2023-03-29T22:05:29.398Z,96941.25
2023-03-29T22:07:58.564Z,96939.34
2023-03-29T22:10:25.587Z,96935.25
2023-03-29T22:12:52.559Z,96935.56
2023-03-29T22:15:20.611Z,96938.25
2023-03-29T22:17:48.043Z,96938.25
2023-03-29T22:20:14.835Z,96945.34
2023-03-29T22:22:46.803Z,96939.06
2023-03-29T22:25:13.414Z,96941.25
2023-03-29T22:27:39.920Z,96948.31
2023-03-29T22:30:07.060Z,96943.44
2023-03-29T22:32:34.666Z,96930.69
2023-03-29T22:35:01.164Z,96936.91
2023-03-29T22:37:27.819Z,96935.56
2023-03-29T22:39:54.273Z,96933.84
2023-03-29T22:42:20.992Z,96933.03
2023-03-29T22:44:47.484Z,96934.56
2023-03-29T22:47:14.292Z,96937.78
2023-03-29T22:49:41.288Z,96947.25
2023-03-29T22:52:07.965Z,96945.25
2023-03-29T22:54:34.407Z,96944.66
2023-03-29T22:57:00.863Z,96944.81
2023-03-29T22:59:27.456Z,96938.56
2023-03-29T23:01:54.066Z,96930.09
2023-03-29T23:04:20.653Z,96933.69
2023-03-29T23:06:47.091Z,96929.34
2023-03-29T23:09:15.848Z,96935.81
2023-03-29T23:11:42.876Z,96936.09
2023-03-29T23:14:09.539Z,96929.81
2023-03-29T23:16:36.919Z,96925.53
2023-03-29T23:19:03.461Z,96927.72
2023-03-29T23:21:29.993Z,96934.78
2023-03-29T23:23:56.464Z,96932.56
2023-03-29T23:26:23.111Z,96926.53
2023-03-29T23:28:51.473Z,96929.75
2023-03-29T23:31:18.436Z,96954.97
2023-03-29T23:33:45.476Z,96945.19
2023-03-29T23:36:14.922Z,96939.50
2023-03-29T23:38:43.672Z,96934.69
2023-03-29T23:41:12.565Z,96935.28
2023-03-29T23:43:41.718Z,96934.41
2023-03-29T23:46:10.782Z,96930.88
2023-03-29T23:48:38.496Z,96933.31
2023-03-29T23:51:07.740Z,96942.81
2023-03-29T23:53:34.208Z,96928.16
2023-03-29T23:56:03.312Z,96920.91
2023-03-29T23:58:35.945Z,96921.22
